Time;durP1;ratioP1;P1;durP2;ratioP2;P2;SDS_P1;SDS_P2;PMS_P1;PMS_P2;Temp;Humidity;BMP_temperature;BMP_pressure;BME280_temperature;BME280_humidity;BME280_pressure;Samples;Min_cycle;Max_cycle;Signal;HPM_P1;HPM_P2
2022/04/10 00:00:04;;;;;;;24.98;2.15;;;;;;;20.08;49.26;99090.59;7313702;19;140307;-38
2022/04/10 00:02:30;;;;;;;27.40;2.70;;;;;;;20.09;49.40;99092.22;7311401;19;131775;-39
2022/04/10 00:04:55;;;;;;;25.20;2.50;;;;;;;20.05;49.37;99080.41;7309334;19;159746;-41
2022/04/10 00:07:20;;;;;;;15.52;1.42;;;;;;;20.03;49.80;99092.81;7310865;19;154431;-40
2022/04/10 00:09:45;;;;;;;40.80;3.70;;;;;;;19.98;50.02;99084.56;7305031;19;154309;-40
2022/04/10 00:12:11;;;;;;;27.42;2.40;;;;;;;20.02;50.07;99088.53;7310120;19;158365;-40
2022/04/10 00:14:36;;;;;;;40.27;3.73;;;;;;;19.93;50.32;99081.56;7312392;19;150776;-40
2022/04/10 00:17:01;;;;;;;21.83;1.80;;;;;;;19.99;50.43;99088.81;7309927;19;154848;-41
2022/04/10 00:19:27;;;;;;;34.65;3.22;;;;;;;19.91;50.06;99078.25;7312297;19;129213;-40
2022/04/10 00:21:52;;;;;;;31.42;2.72;;;;;;;19.68;49.02;99087.38;7312290;19;129235;-39
2022/04/10 00:24:17;;;;;;;30.42;2.67;;;;;;;19.74;48.69;99092.84;7311493;19;129646;-38
2022/04/10 00:26:43;;;;;;;28.77;2.65;;;;;;;19.75;48.26;99089.28;7310562;19;154876;-37
2022/04/10 00:29:08;;;;;;;29.65;2.35;;;;;;;19.77;48.50;99096.94;7312126;19;129664;-39
2022/04/10 00:31:34;;;;;;;29.73;2.77;;;;;;;19.78;47.89;99093.41;7311102;19;159045;-39
2022/04/10 00:33:59;;;;;;;28.63;2.63;;;;;;;19.86;48.04;99096.13;7311629;19;130395;-40
2022/04/10 00:36:25;;;;;;;27.65;2.22;;;;;;;19.84;48.16;99093.66;7308928;19;130301;-40
2022/04/10 00:38:50;;;;;;;23.10;2.08;;;;;;;19.86;47.64;99094.34;7312726;19;130000;-38
2022/04/10 00:41:16;;;;;;;35.17;3.15;;;;;;;19.89;48.08;99103.66;7312875;19;128937;-39
2022/04/10 00:44:10;;;;;;;25.20;2.33;;;;;;;19.88;47.57;99099.44;7309598;19;158586;-39
2022/04/10 00:46:36;;;;;;;33.88;3.03;;;;;;;19.91;47.78;99102.59;7312707;19;129059;-39
2022/04/10 00:49:02;;;;;;;19.90;1.67;;;;;;;20.14;47.83;99110.88;7311703;19;130030;-41
2022/04/10 00:51:40;;;;;;;19.33;2.00;;;;;;;20.11;48.35;99100.75;7312606;19;130958;-39
2022/04/10 00:54:08;;;;;;;48.05;4.15;;;;;;;20.16;48.75;99115.00;7310798;19;129398;-39
2022/04/10 00:56:34;;;;;;;36.08;3.03;;;;;;;20.13;48.92;99115.28;7308788;19;129482;-39
2022/04/10 00:59:01;;;;;;;38.43;3.73;;;;;;;20.11;48.97;99121.63;7309595;19;155458;-41
2022/04/10 01:01:27;;;;;;;23.88;2.22;;;;;;;20.08;49.06;99121.91;7312405;19;129923;-39
2022/04/10 01:03:53;;;;;;;20.67;1.85;;;;;;;20.03;49.97;99119.69;7311146;19;129265;-37
2022/04/10 01:06:18;;;;;;;24.73;2.08;;;;;;;19.99;49.04;99127.94;7307776;19;129434;-39
2022/04/10 01:08:43;;;;;;;15.57;1.43;;;;;;;19.98;49.66;99126.31;7309787;19;153334;-38
2022/04/10 01:11:09;;;;;;;33.67;2.90;;;;;;;19.88;49.61;99104.63;7311564;19;129011;-40
2022/04/10 01:13:35;;;;;;;25.00;2.55;;;;;;;20.00;50.34;99121.78;7307420;19;158436;-40
2022/04/10 01:16:00;;;;;;;13.93;1.42;;;;;;;20.02;50.34;99122.44;7310098;19;130233;-40
2022/04/10 01:18:26;;;;;;;25.52;2.25;;;;;;;19.82;49.55;99126.03;7309339;19;129969;-40
2022/04/10 01:20:51;;;;;;;14.75;1.33;;;;;;;19.61;48.98;99128.00;7309136;19;129537;-38
2022/04/10 01:23:18;;;;;;;24.13;2.17;;;;;;;19.70;48.42;99130.59;7309418;19;129212;-39
2022/04/10 01:25:44;;;;;;;31.67;2.47;;;;;;;19.73;48.41;99132.13;7307123;19;128878;-38
2022/04/10 01:28:13;;;;;;;32.35;2.95;;;;;;;19.78;47.98;99132.53;7304178;19;129958;-38
2022/04/10 01:30:39;;;;;;;19.10;1.75;;;;;;;19.86;47.76;99127.44;7310295;19;129492;-38
2022/04/10 01:33:05;;;;;;;41.75;3.95;;;;;;;19.75;47.61;99110.13;7310726;19;130447;-38
2022/04/10 01:35:32;;;;;;;18.50;1.53;;;;;;;19.89;47.59;99127.16;7310107;19;128879;-38
2022/04/10 01:38:00;;;;;;;23.67;2.05;;;;;;;19.90;48.23;99129.59;7308545;19;129033;-38
2022/04/10 01:40:26;;;;;;;25.27;2.10;;;;;;;19.87;47.73;99123.84;7309182;19;131082;-39
2022/04/10 01:42:51;;;;;;;18.23;1.65;;;;;;;19.91;47.71;99131.28;7309566;19;131014;-38
2022/04/10 01:45:16;;;;;;;43.95;4.13;;;;;;;19.94;47.78;99135.38;7307774;19;130221;-38
2022/04/10 01:47:41;;;;;;;26.83;2.25;;;;;;;20.21;48.35;99138.91;7307720;19;137891;-37
2022/04/10 01:50:07;;;;;;;41.33;3.67;;;;;;;20.27;48.59;99142.75;7306141;19;158280;-38
2022/04/10 01:52:33;;;;;;;23.47;2.07;;;;;;;20.21;48.71;99138.91;7309028;19;130662;-38
2022/04/10 01:54:58;;;;;;;23.55;2.15;;;;;;;20.09;48.53;99128.75;7309524;19;130030;-38
2022/04/10 01:57:23;;;;;;;35.73;3.13;;;;;;;20.11;49.24;99142.50;7303725;19;154270;-38
2022/04/10 01:59:48;;;;;;;18.05;1.55;;;;;;;20.11;49.68;99139.88;7309285;19;158336;-38
2022/04/10 02:02:14;;;;;;;20.67;2.00;;;;;;;20.09;49.25;99136.59;7306871;19;158704;-38
2022/04/10 02:04:39;;;;;;;27.00;2.40;;;;;;;20.05;49.82;99135.19;7310235;19;129253;-40
2022/04/10 02:07:05;;;;;;;27.73;2.33;;;;;;;20.03;49.33;99134.53;7306412;19;154230;-41
2022/04/10 02:09:30;;;;;;;34.08;3.05;;;;;;;19.97;49.58;99129.88;7305815;19;140149;-40
2022/04/10 02:11:55;;;;;;;22.90;2.55;;;;;;;20.02;50.09;99138.94;7305842;19;158478;-37
2022/04/10 02:14:20;;;;;;;43.67;3.53;;;;;;;20.04;50.20;99129.19;7307499;19;129277;-41
2022/04/10 02:16:46;;;;;;;20.93;1.90;;;;;;;19.63;49.36;99126.09;7306324;19;154301;-39
2022/04/10 02:19:11;;;;;;;27.67;2.58;;;;;;;19.70;49.07;99143.63;7306159;19;130602;-37
2022/04/10 02:21:37;;;;;;;29.65;2.72;;;;;;;19.76;48.76;99137.06;7307273;19;159471;-38
2022/04/10 02:24:02;;;;;;;11.93;1.33;;;;;;;19.79;48.48;99148.03;7308951;19;130816;-38
2022/04/10 02:26:28;;;;;;;35.20;3.10;;;;;;;19.82;48.39;99141.69;7307901;19;129119;-40
2022/04/10 02:28:53;;;;;;;31.90;2.88;;;;;;;19.79;48.15;99132.38;7306163;19;129134;-37
2022/04/10 02:31:18;;;;;;;26.67;2.35;;;;;;;19.89;47.60;99138.41;7306731;19;159198;-38
2022/04/10 02:33:44;;;;;;;32.40;2.53;;;;;;;19.82;47.88;99139.94;7304415;19;154676;-38
2022/04/10 02:36:09;;;;;;;20.40;1.77;;;;;;;19.79;47.97;99121.13;7312041;19;153841;-37
2022/04/10 02:38:35;;;;;;;30.52;2.75;;;;;;;19.90;47.39;99144.47;7313690;19;129880;-38
2022/04/10 02:41:00;;;;;;;39.83;3.80;;;;;;;19.91;47.37;99140.88;7313935;19;130003;-39
2022/04/10 02:43:25;;;;;;;21.25;1.73;;;;;;;20.00;48.30;99146.06;7315551;19;154016;-38
2022/04/10 02:45:51;;;;;;;27.13;2.47;;;;;;;20.21;47.97;99148.53;7313074;19;152732;-39
2022/04/10 02:48:16;;;;;;;27.43;2.30;;;;;;;20.21;48.97;99149.34;7310044;19;158225;-40
2022/04/10 02:50:41;;;;;;;19.58;1.95;;;;;;;20.13;48.53;99141.38;7316480;19;130488;-38
2022/04/10 02:53:07;;;;;;;18.33;1.90;;;;;;;20.10;49.18;99146.03;7311776;19;129764;-39
2022/04/10 02:55:33;;;;;;;32.15;3.00;;;;;;;19.97;49.68;99135.09;7314621;19;128932;-38
2022/04/10 02:57:59;;;;;;;35.90;3.17;;;;;;;19.97;49.46;99132.47;7310249;19;130442;-37
2022/04/10 03:00:24;;;;;;;37.85;3.25;;;;;;;20.03;49.27;99145.78;7313677;19;129268;-37
2022/04/10 03:02:49;;;;;;;24.70;2.13;;;;;;;19.92;49.47;99135.53;7314570;19;129934;-38
2022/04/10 03:05:15;;;;;;;29.05;2.75;;;;;;;19.93;50.06;99138.97;7312812;19;154271;-39
2022/04/10 03:07:40;;;;;;;35.22;3.08;;;;;;;20.02;49.86;99153.75;7313435;19;151618;-40
2022/04/10 03:10:06;;;;;;;30.52;2.88;;;;;;;20.01;49.93;99162.56;7314614;19;130506;-39
2022/04/10 03:12:31;;;;;;;35.05;3.03;;;;;;;20.02;49.82;99164.19;7316469;19;129047;-38
2022/04/10 03:14:56;;;;;;;16.38;1.35;;;;;;;19.69;48.83;99160.25;7316306;19;129588;-40
2022/04/10 03:17:22;;;;;;;29.42;2.40;;;;;;;19.67;48.52;99163.97;7314523;19;129128;-39
2022/04/10 03:19:47;;;;;;;19.02;1.77;;;;;;;19.76;48.94;99155.31;7315886;19;129152;-40
2022/04/10 03:22:12;;;;;;;18.42;1.52;;;;;;;19.83;47.82;99161.63;7314898;19;154130;-40
2022/04/10 03:24:37;;;;;;;26.23;2.20;;;;;;;19.81;48.27;99160.94;7313415;19;154953;-38
2022/04/10 03:27:03;;;;;;;28.50;2.50;;;;;;;19.86;48.47;99174.38;7312914;19;157663;-38
2022/04/10 03:29:28;;;;;;;24.08;2.03;;;;;;;19.89;48.50;99174.09;7315414;19;130194;-40
2022/04/10 03:31:53;;;;;;;33.47;3.03;;;;;;;19.87;47.65;99176.03;7313331;19;155910;-41
2022/04/10 03:34:19;;;;;;;23.97;2.03;;;;;;;19.89;47.34;99184.53;7314025;19;152972;-38
2022/04/10 03:36:44;;;;;;;33.83;3.00;;;;;;;19.90;48.12;99186.19;7304442;19;158408;-43
2022/04/10 03:39:09;;;;;;;19.20;1.52;;;;;;;19.92;47.27;99182.47;7312797;19;158412;-40
2022/04/10 03:41:34;;;;;;;35.20;2.97;;;;;;;19.99;47.94;99165.31;7308847;19;154741;-38
2022/04/10 03:44:00;;;;;;;29.08;2.53;;;;;;;20.21;48.06;99180.66;7313681;19;128974;-37
2022/04/10 03:46:25;;;;;;;58.95;5.00;;;;;;;20.17;48.53;99181.09;7308120;19;129269;-38
2022/04/10 03:48:50;;;;;;;19.60;1.55;;;;;;;20.09;48.59;99186.16;7310729;19;158319;-38
2022/04/10 03:51:16;;;;;;;26.37;2.23;;;;;;;20.14;49.15;99189.19;7313167;19;154665;-38
2022/04/10 03:53:41;;;;;;;44.20;4.00;;;;;;;20.08;49.42;99185.34;7306292;19;155413;-37
2022/04/10 03:56:09;;;;;;;31.60;3.05;;;;;;;20.05;49.57;99190.00;7312517;19;130193;-37
2022/04/10 03:58:34;;;;;;;18.33;1.45;;;;;;;20.04;50.05;99198.81;7314163;19;131286;-38
2022/04/10 04:01:00;;;;;;;8.52;0.88;;;;;;;20.01;49.68;99204.31;7313041;19;144196;-38
2022/04/10 04:03:25;;;;;;;23.77;2.08;;;;;;;19.97;49.54;99200.31;7313351;19;153852;-38
2022/04/10 04:05:50;;;;;;;18.42;1.67;;;;;;;20.02;49.58;99203.34;7311006;19;159120;-38
2022/04/10 04:08:16;;;;;;;28.33;2.58;;;;;;;19.95;50.12;99210.09;7309789;19;151147;-37
2022/04/10 04:10:41;;;;;;;30.77;2.97;;;;;;;19.84;49.50;99208.44;7314607;19;129928;-41
2022/04/10 04:13:07;;;;;;;18.23;1.42;;;;;;;19.70;49.09;99219.25;7314703;19;129535;-37
2022/04/10 04:15:32;;;;;;;26.33;2.47;;;;;;;19.73;49.06;99212.97;7314863;19;129564;-37
2022/04/10 04:17:57;;;;;;;8.90;0.90;;;;;;;19.73;49.11;99224.22;7311558;19;149386;-41
2022/04/10 04:20:22;;;;;;;40.20;3.50;;;;;;;19.78;48.26;99223.81;7308447;19;154358;-38
2022/04/10 04:22:50;;;;;;;22.08;1.75;;;;;;;19.86;47.49;99222.16;7313865;19;129147;-39
2022/04/10 04:25:16;;;;;;;45.22;4.30;;;;;;;19.86;48.25;99222.16;7311259;19;130245;-38
2022/04/10 04:27:41;;;;;;;16.80;1.58;;;;;;;19.83;47.94;99232.88;7310691;19;135869;-37
2022/04/10 04:30:07;;;;;;;22.25;1.98;;;;;;;19.82;48.29;99233.81;7314505;19;130012;-40
2022/04/10 04:32:32;;;;;;;25.88;2.50;;;;;;;19.87;47.83;99239.47;7312987;19;128972;-39
2022/04/10 04:34:57;;;;;;;25.07;2.13;;;;;;;19.91;47.83;99240.84;7311547;19;157198;-41
2022/04/10 04:37:22;;;;;;;31.90;2.78;;;;;;;19.94;47.28;99237.13;7309159;19;159038;-38
2022/04/10 04:39:48;;;;;;;27.77;2.53;;;;;;;20.05;48.49;99231.75;7311107;19;155879;-40
2022/04/10 04:42:13;;;;;;;26.38;2.25;;;;;;;20.22;48.56;99244.13;7311567;19;130179;-37
2022/04/10 04:44:39;;;;;;;31.73;2.75;;;;;;;20.15;48.75;99246.47;7311290;19;154993;-37
2022/04/10 04:47:04;;;;;;;19.48;1.60;;;;;;;20.13;48.87;99244.97;7310185;19;158587;-38
2022/04/10 04:49:29;;;;;;;9.35;0.93;;;;;;;20.00;49.46;99233.97;7312556;19;128962;-38
2022/04/10 04:51:55;;;;;;;37.17;3.37;;;;;;;20.07;49.15;99255.94;7307902;19;155305;-37
2022/04/10 04:54:20;;;;;;;33.63;3.05;;;;;;;20.04;49.45;99258.81;7308429;19;158307;-40
2022/04/10 04:56:45;;;;;;;16.63;1.70;;;;;;;20.01;49.39;99261.72;7308198;19;158379;-41
2022/04/10 04:59:14;;;;;;;26.48;2.30;;;;;;;19.93;49.95;99253.75;7311241;19;129968;-39
2022/04/10 05:01:41;;;;;;;41.88;3.95;;;;;;;20.00;49.69;99265.28;7309990;19;129127;-40
2022/04/10 05:04:06;;;;;;;;;;;;;;;20.00;50.98;99275.72;7310422;19;129312;-40
2022/04/10 05:06:31;;;;;;;24.57;2.13;;;;;;;19.99;49.99;99282.72;7307653;19;141379;-38
2022/04/10 05:08:56;;;;;;;23.88;2.35;;;;;;;19.96;50.24;99282.16;7307366;19;154306;-41
2022/04/10 05:11:22;;;;;;;20.53;1.77;;;;;;;19.63;48.79;99287.75;7309883;19;154201;-41
2022/04/10 05:13:47;;;;;;;31.20;2.83;;;;;;;19.57;49.12;99267.44;7308722;19;158620;-38
2022/04/10 05:16:12;;;;;;;23.70;1.98;;;;;;;19.76;48.25;99288.31;7307551;19;158240;-40
2022/04/10 05:18:37;;;;;;;41.50;3.55;;;;;;;19.78;48.08;99287.25;7307699;19;154203;-39
2022/04/10 05:21:03;;;;;;;30.13;2.65;;;;;;;19.81;47.89;99286.13;7309638;19;138155;-42
2022/04/10 05:23:29;;;;;;;21.33;1.92;;;;;;;19.77;48.33;99284.75;7310499;19;129501;-39
2022/04/10 05:25:54;;;;;;;26.30;2.53;;;;;;;19.80;47.67;99295.72;7310435;19;129965;-41
2022/04/10 05:28:20;;;;;;;23.17;2.03;;;;;;;19.87;47.90;99293.41;7307750;19;129123;-38
2022/04/10 05:30:45;;;;;;;28.92;2.85;;;;;;;19.90;47.73;99301.00;7311778;19;129106;-40
2022/04/10 05:33:11;;;;;;;25.17;2.35;;;;;;;19.90;47.83;99314.84;7310015;19;131798;-37
2022/04/10 05:35:37;;;;;;;26.40;2.23;;;;;;;19.90;47.89;99317.44;7309413;19;129400;-41
2022/04/10 05:38:03;;;;;;;40.38;3.50;;;;;;;20.02;48.30;99326.81;7305924;19;155072;-39
2022/04/10 05:40:29;;;;;;;21.92;1.65;;;;;;;20.22;47.95;99319.84;7310111;19;130516;-40
2022/04/10 05:42:54;;;;;;;22.10;2.10;;;;;;;20.16;48.42;99323.00;7308567;19;129258;-37
2022/04/10 05:45:19;;;;;;;43.63;4.03;;;;;;;20.13;48.75;99323.25;7307298;19;131414;-40
2022/04/10 05:47:45;;;;;;;23.00;2.15;;;;;;;20.11;49.68;99330.38;7308401;19;129635;-38
2022/04/10 05:50:11;;;;;;;30.85;2.92;;;;;;;20.10;49.05;99328.72;7309141;19;129435;-39
2022/04/10 05:52:44;;;;;;;40.25;3.42;;;;;;;19.98;49.54;99314.19;7308797;19;131656;-39
2022/04/10 05:55:10;;;;;;;28.83;2.55;;;;;;;19.94;50.12;99312.78;7307530;19;130102;-39
2022/04/10 05:57:36;;;;;;;41.38;3.63;;;;;;;20.03;49.61;99338.06;7305222;19;129270;-38
2022/04/10 06:00:05;;;;;;;49.77;3.97;;;;;;;19.89;50.37;99322.81;7306720;19;129403;-39
2022/04/10 06:02:31;;;;;;;25.33;2.33;;;;;;;19.96;50.27;99339.56;7308302;19;129451;-38
2022/04/10 06:04:56;;;;;;;26.92;2.42;;;;;;;19.89;50.25;99321.03;7305471;19;129279;-40
2022/04/10 06:07:22;;;;;;;31.13;2.90;;;;;;;19.99;49.77;99337.53;7305858;19;130624;-41
2022/04/10 06:09:47;;;;;;;15.93;1.63;;;;;;;19.72;49.70;99334.72;7307533;19;128901;-39
2022/04/10 06:12:12;;;;;;;25.90;2.25;;;;;;;19.68;49.17;99342.94;7313096;19;158987;-41
2022/04/10 06:14:37;;;;;;;21.23;1.90;;;;;;;19.66;48.38;99342.25;7314168;19;158555;-39
2022/04/10 06:17:03;;;;;;;39.57;3.60;;;;;;;19.71;48.65;99343.50;7312042;19;154774;-39
2022/04/10 06:19:28;;;;;;;26.70;2.33;;;;;;;19.74;48.84;99350.22;7316421;19;129076;-39
2022/04/10 06:21:54;;;;;;;25.50;2.33;;;;;;;19.82;47.73;99337.34;7312705;19;159116;-40
2022/04/10 06:24:21;;;;;;;21.70;1.83;;;;;;;19.87;47.83;99345.59;7315533;19;129748;-40
2022/04/10 06:26:49;;;;;;;27.80;2.65;;;;;;;19.89;47.89;99348.88;7313937;19;129806;-38
2022/04/10 06:29:14;;;;;;;38.47;3.55;;;;;;;19.82;47.38;99335.56;7313861;19;129473;-39
2022/04/10 06:31:40;;;;;;;53.05;4.93;;;;;;;19.87;47.44;99353.41;7312694;19;130237;-40
2022/04/10 06:34:05;;;;;;;29.20;2.67;;;;;;;19.90;47.67;99353.16;7310132;19;159077;-37
2022/04/10 06:36:30;;;;;;;35.33;3.13;;;;;;;20.11;47.87;99353.88;7313495;19;129208;-39
2022/04/10 06:38:55;;;;;;;11.85;1.05;;;;;;;20.19;48.66;99359.25;7314820;19;134023;-39
2022/04/10 06:41:21;;;;;;;23.17;1.95;;;;;;;20.16;48.71;99354.31;7312621;19;158505;-38
2022/04/10 06:43:46;;;;;;;28.55;2.63;;;;;;;20.14;49.13;99364.03;7313039;19;151377;-40
2022/04/10 06:46:11;;;;;;;44.53;4.03;;;;;;;20.08;48.90;99357.56;7311103;19;147005;-39
2022/04/10 06:48:38;;;;;;;26.47;2.60;;;;;;;20.02;49.57;99358.13;7311928;19;155200;-41
2022/04/10 06:51:03;;;;;;;29.73;2.75;;;;;;;20.00;49.75;99365.25;7313385;19;129917;-40
2022/04/10 06:53:29;;;;;;;25.48;2.40;;;;;;;20.03;49.91;99364.16;7312541;19;129515;-38
2022/04/10 06:55:54;;;;;;;20.83;1.75;;;;;;;20.03;49.83;99372.00;7313294;19;154584;-39
2022/04/10 06:58:22;;;;;;;31.67;2.60;;;;;;;20.01;50.33;99373.91;7310285;19;129783;-39
2022/04/10 07:00:48;;;;;;;26.08;2.35;;;;;;;19.97;50.15;99377.72;7313934;19;129737;-39
2022/04/10 07:03:13;;;;;;;38.75;3.47;;;;;;;19.96;49.89;99376.09;7312497;19;129165;-40
2022/04/10 07:05:39;;;;;;;38.83;3.42;;;;;;;19.78;49.89;99380.31;7312365;19;137103;-41
2022/04/10 07:08:05;;;;;;;20.20;2.27;;;;;;;19.63;49.09;99381.63;7311464;19;129545;-38
2022/04/10 07:10:30;;;;;;;13.63;1.23;;;;;;;19.67;48.62;99377.81;7313189;19;130730;-40
2022/04/10 07:12:56;;;;;;;17.10;1.52;;;;;;;19.70;48.74;99383.56;7312892;19;129517;-41
2022/04/10 07:15:21;;;;;;;40.53;4.13;;;;;;;19.72;48.42;99381.66;7310987;19;129565;-40
2022/04/10 07:17:47;;;;;;;39.33;3.30;;;;;;;19.74;47.99;99384.97;7311066;19;131009;-40
2022/04/10 07:20:12;;;;;;;34.20;3.28;;;;;;;19.80;48.40;99387.03;7310626;19;130159;-36
2022/04/10 07:25:22;;;;;;;37.03;3.70;;;;;;;19.84;47.48;99379.78;7312497;19;131865;-39
2022/04/10 07:27:48;;;;;;;34.00;3.17;;;;;;;19.90;47.45;99384.47;7309484;19;129492;-40
2022/04/10 07:30:13;;;;;;;24.77;2.30;;;;;;;20.09;47.94;99384.50;7314209;19;129885;-40
2022/04/10 07:32:39;;;;;;;24.55;2.45;;;;;;;20.14;48.25;99387.53;7309866;19;157495;-38
2022/04/10 07:35:05;;;;;;;42.53;3.95;;;;;;;20.10;48.73;99388.75;7306253;19;129445;-41
2022/04/10 07:37:30;;;;;;;55.25;4.90;;;;;;;20.10;49.37;99392.19;7307558;19;129239;-38
2022/04/10 07:39:55;;;;;;;21.38;1.70;;;;;;;20.03;48.93;99387.66;7309132;19;129405;-41
2022/04/10 07:42:21;;;;;;;32.72;2.83;;;;;;;20.01;49.63;99392.19;7311515;19;130381;-41
2022/04/10 07:44:46;;;;;;;56.35;4.82;;;;;;;20.00;49.33;99395.75;7309233;19;130390;-39
2022/04/10 07:47:27;;;;;;;50.55;4.28;;;;;;;20.05;49.85;99393.53;7286606;19;153302;-36
2022/04/10 07:49:53;;;;;;;34.15;3.22;;;;;;;20.10;49.37;99402.63;7302951;19;130384;-38
2022/04/10 07:52:19;;;;;;;46.40;3.78;;;;;;;20.06;49.56;99397.81;7307928;19;129929;-38
2022/04/10 07:54:45;;;;;;;28.38;2.67;;;;;;;20.03;49.62;99405.91;7311070;19;130435;-38
2022/04/10 07:57:10;;;;;;;6.35;0.75;;;;;;;20.00;49.69;99407.00;7312622;19;129238;-37
2022/04/10 07:59:36;;;;;;;49.28;4.50;;;;;;;19.73;49.21;99409.41;7313281;19;129330;-38
2022/04/10 08:02:02;;;;;;;27.40;2.57;;;;;;;19.65;49.18;99409.22;7312448;19;159833;-37
2022/04/10 08:04:27;;;;;;;25.17;2.65;;;;;;;19.67;48.39;99416.94;7310589;19;130643;-38
2022/04/10 08:06:52;;;;;;;25.37;2.50;;;;;;;19.71;48.04;99419.16;7307689;19;153973;-38
2022/04/10 08:09:18;;;;;;;20.20;2.17;;;;;;;19.65;48.06;99411.03;7309314;19;158572;-38
2022/04/10 08:11:43;;;;;;;27.98;2.40;;;;;;;19.74;48.11;99423.25;7309985;19;130376;-37
2022/04/10 08:14:08;;;;;;;15.15;1.25;;;;;;;19.73;48.03;99424.22;7314666;19;154821;-38
2022/04/10 08:16:33;;;;;;;49.33;4.47;;;;;;;19.75;48.06;99437.97;7309955;19;154463;-38
2022/04/10 08:18:59;;;;;;;34.00;2.77;;;;;;;19.73;47.60;99434.66;7311135;19;158583;-37
2022/04/10 08:21:24;;;;;;;10.87;1.17;;;;;;;19.73;47.69;99434.66;7314753;19;158934;-38
2022/04/10 08:23:49;;;;;;;25.93;2.27;;;;;;;19.80;47.64;99456.66;7314368;19;154788;-37
2022/04/10 08:26:14;;;;;;;21.13;1.80;;;;;;;19.77;48.03;99456.91;7313134;19;154099;-37
2022/04/10 08:28:40;;;;;;;20.30;1.93;;;;;;;20.03;47.62;99456.31;7314297;19;158698;-38
2022/04/10 08:31:05;;;;;;;17.48;1.75;;;;;;;20.05;48.46;99451.78;7315308;19;150798;-37
2022/04/10 08:33:30;;;;;;;11.03;1.00;;;;;;;19.96;48.43;99463.03;7315152;19;154896;-37
2022/04/10 08:35:56;;;;;;;15.07;1.20;;;;;;;19.88;49.26;99456.81;7314936;19;136175;-38
2022/04/10 08:38:22;;;;;;;22.07;2.13;;;;;;;19.87;50.53;99470.81;7313470;19;129126;-38
2022/04/10 08:40:48;;;;;;;23.30;2.17;;;;;;;19.90;49.95;99465.34;7314548;19;130398;-37
2022/04/10 08:43:14;;;;;;;14.50;1.25;;;;;;;19.88;51.09;99464.66;7316234;19;128822;-38
2022/04/10 08:45:39;;;;;;;23.52;2.13;;;;;;;19.86;50.59;99469.16;7312900;19;154303;-37
2022/04/10 08:48:05;;;;;;;19.75;1.88;;;;;;;19.85;51.17;99468.31;7313516;19;129674;-37
2022/04/10 08:50:31;;;;;;;18.17;1.70;;;;;;;19.86;50.97;99477.00;7315797;19;130083;-38
2022/04/10 08:52:58;;;;;;;24.33;2.25;;;;;;;19.83;50.65;99482.47;7314637;19;128934;-38
2022/04/10 08:55:26;;;;;;;22.70;2.35;;;;;;;19.83;50.57;99480.69;7315354;19;128936;-38
2022/04/10 08:57:51;;;;;;;19.25;1.85;;;;;;;19.62;49.65;99476.47;7313848;19;131509;-38
2022/04/10 09:00:19;;;;;;;20.42;1.90;;;;;;;19.54;49.35;99476.28;7314933;19;129253;-38
2022/04/10 09:02:52;;;;;;;24.25;2.22;;;;;;;19.59;48.65;99490.59;7315859;19;130553;-37
2022/04/10 09:05:19;;;;;;;31.48;2.92;;;;;;;19.60;48.18;99478.38;7314927;19;130148;-38
2022/04/10 09:08:11;;;;;;;15.10;1.30;;;;;;;19.61;48.52;99467.00;7313306;19;129579;-37
2022/04/10 09:11:05;;;;;;;17.83;1.73;;;;;;;19.63;48.00;99478.97;7314695;19;130900;-37
2022/04/10 09:13:35;;;;;;;17.10;1.50;;;;;;;19.63;48.09;99472.91;7315314;19;129190;-38
2022/04/10 09:16:02;;;;;;;14.80;1.25;;;;;;;19.56;48.12;99463.94;7312557;19;130507;-37
2022/04/10 09:18:28;;;;;;;23.25;2.15;;;;;;;19.61;47.86;99478.25;7308885;19;129742;-37
2022/04/10 09:21:07;;;;;;;15.70;1.30;;;;;;;19.67;48.49;99477.72;7312135;19;129589;-37
2022/04/10 09:23:33;;;;;;;13.75;1.50;;;;;;;19.66;47.83;99472.63;7311935;19;130835;-37
2022/04/10 09:25:59;;;;;;;17.70;1.40;;;;;;;19.67;48.05;99477.72;7312796;19;129084;-37
2022/04/10 09:28:45;;;;;;;26.60;2.47;;;;;;;19.90;48.59;99478.38;7310973;19;130425;-38
2022/04/10 09:31:29;;;;;;;23.48;2.33;;;;;;;19.72;49.21;99459.09;7312165;19;131065;-37
2022/04/10 09:33:57;;;;;;;7.18;0.82;;;;;;;19.78;50.26;99467.22;7312992;19;128974;-38
2022/04/10 09:36:36;;;;;;;23.33;2.08;;;;;;;19.82;50.43;99470.38;7311782;19;130366;-37
2022/04/10 09:39:04;;;;;;;16.20;1.48;;;;;;;19.81;50.85;99468.72;7312078;19;130233;-37
2022/04/10 09:41:29;;;;;;;18.85;1.75;;;;;;;19.83;49.94;99459.00;7312500;19;129375;-38
2022/04/10 09:44:00;;;;;;;21.30;2.13;;;;;;;19.81;51.34;99468.72;7311103;19;155926;-37
2022/04/10 09:46:25;;;;;;;15.98;1.45;;;;;;;19.81;51.16;99473.94;7308645;19;128744;-38
2022/04/10 09:48:50;;;;;;;24.25;2.50;;;;;;;19.78;50.98;99458.56;7311689;19;129265;-37
2022/04/10 09:51:15;;;;;;;21.92;2.10;;;;;;;19.81;51.19;99468.72;7310902;19;159451;-37
2022/04/10 09:54:00;;;;;;;18.73;1.80;;;;;;;19.81;52.05;99473.94;7312200;19;153455;-37
2022/04/10 09:56:27;;;;;;;6.88;0.85;;;;;;;19.48;49.32;99486.25;7311603;19;129070;-37
2022/04/10 09:58:57;;;;;;;4.65;0.52;;;;;;;19.51;48.39;99486.97;7312086;19;129053;-37
2022/04/10 10:01:22;;;;;;;16.80;1.45;;;;;;;19.44;48.92;99471.84;7310186;19;131983;-37
2022/04/10 10:03:50;;;;;;;19.52;1.88;;;;;;;19.47;48.65;99477.78;7311728;19;154593;-37
2022/04/10 10:06:16;;;;;;;21.90;2.30;;;;;;;19.55;48.32;99493.59;7310815;19;129238;-38
2022/04/10 10:08:42;;;;;;;28.60;2.77;;;;;;;19.56;48.71;99490.84;7310839;19;130508;-38
2022/04/10 10:11:08;;;;;;;23.33;2.45;;;;;;;19.57;48.30;99486.47;7311598;19;130376;-37
2022/04/10 10:13:37;;;;;;;19.35;1.67;;;;;;;19.62;48.51;99489.53;7311612;19;129947;-37
2022/04/10 10:16:02;;;;;;;15.20;1.17;;;;;;;19.62;48.43;99494.72;7311217;19;130963;-37
2022/04/10 10:18:28;;;;;;;19.85;1.65;;;;;;;19.61;47.95;99498.28;7308062;19;130124;-38
2022/04/10 10:20:53;;;;;;;25.17;2.35;;;;;;;19.60;47.96;99496.63;7309100;19;160278;-38
2022/04/10 10:23:21;;;;;;;16.77;1.48;;;;;;;19.60;48.03;99488.81;7311699;19;130567;-37
2022/04/10 10:26:07;;;;;;;18.92;1.95;;;;;;;19.65;47.96;99484.84;7309642;19;129029;-37
2022/04/10 10:28:55;;;;;;;37.65;3.75;;;;;;;19.63;48.40;99470.31;7307795;19;129458;-38
2022/04/10 10:31:45;;;;;;;20.30;1.92;;;;;;;19.86;48.87;99466.56;7310026;19;129908;-37
2022/04/10 10:34:11;;;;;;;24.15;2.13;;;;;;;19.76;49.26;99465.69;7311608;19;129793;-38
2022/04/10 10:36:37;;;;;;;20.20;1.87;;;;;;;19.76;49.86;99461.31;7309382;19;129563;-37
2022/04/10 10:39:05;;;;;;;19.50;1.65;;;;;;;19.72;49.98;99457.28;7311252;19;129317;-38
2022/04/10 10:41:32;;;;;;;32.40;2.75;;;;;;;19.76;50.46;99455.25;7309711;19;132252;-38
2022/04/10 10:44:14;;;;;;;18.50;1.60;;;;;;;19.75;50.18;99464.84;7310895;19;129090;-38
2022/04/10 10:46:55;;;;;;;13.68;1.60;;;;;;;19.76;51.80;99466.53;7308928;19;128783;-37
2022/04/10 10:49:20;;;;;;;15.73;1.38;;;;;;;19.77;50.78;99451.69;7310019;19;129811;-38
2022/04/10 10:51:49;;;;;;;22.00;2.15;;;;;;;19.78;51.09;99458.56;7309905;19;130535;-38
2022/04/10 10:54:26;;;;;;;20.42;1.90;;;;;;;19.65;51.87;99448.34;7310210;19;130602;-37
2022/04/10 10:56:52;;;;;;;21.05;2.05;;;;;;;19.63;49.30;99454.66;7312792;19;129276;-38
2022/04/10 10:59:23;;;;;;;16.73;1.48;;;;;;;19.38;49.21;99453.28;7317492;19;129731;-37
2022/04/10 11:02:01;;;;;;;20.73;2.05;;;;;;;19.51;49.13;99463.50;7317353;19;130370;-38
2022/04/10 11:04:29;;;;;;;17.42;1.52;;;;;;;19.50;48.89;99469.69;7319162;19;129240;-37
2022/04/10 11:07:10;;;;;;;14.35;1.27;;;;;;;19.51;48.77;99474.78;7315150;19;129206;-38
2022/04/10 11:09:35;;;;;;;26.10;2.50;;;;;;;19.41;48.17;99459.09;7318014;19;130878;-37
2022/04/10 11:12:00;;;;;;;5.93;0.70;;;;;;;19.56;48.56;99463.94;7315825;19;159311;-38
2022/04/10 11:14:39;;;;;;;16.95;1.60;;;;;;;19.56;48.31;99462.16;7318559;19;129073;-37
2022/04/10 11:17:25;;;;;;;17.95;1.52;;;;;;;19.59;48.44;99480.16;7314884;19;129243;-37